sensor_id;sensor_type;location;lat;lon;timestamp;pressure;altitude;pressure_sealevel;temperature;humidity
48555;BME280;34336;48.270;16.716;2022-12-07T00:01:27;77070.13;;;18.16;100.00
48555;BME280;34336;48.270;16.716;2022-12-07T00:03:55;77073.97;;;18.16;100.00
48555;BME280;34336;48.270;16.716;2022-12-07T00:06:31;77068.19;;;18.16;100.00
48555;BME280;34336;48.270;16.716;2022-12-07T00:08:57;77064.34;;;18.16;100.00
48555;BME280;34336;48.270;16.716;2022-12-07T00:11:24;77060.47;;;18.16;100.00
48555;BME280;34336;48.270;16.716;2022-12-07T00:13:55;77060.47;;;18.16;100.00
48555;BME280;34336;48.270;16.716;2022-12-07T00:16:23;77064.34;;;18.16;100.00
48555;BME280;34336;48.270;16.716;2022-12-07T00:18:49;77062.41;;;18.16;100.00
48555;BME280;34336;48.270;16.716;2022-12-07T00:21:17;77064.34;;;18.16;100.00
48555;BME280;34336;48.270;16.716;2022-12-07T00:23:44;77060.47;;;18.16;100.00
48555;BME280;34336;48.270;16.716;2022-12-07T00:26:12;77056.63;;;18.16;100.00
48555;BME280;34336;48.270;16.716;2022-12-07T00:28:39;77050.84;;;18.16;100.00
48555;BME280;34336;48.270;16.716;2022-12-07T00:31:07;77041.22;;;18.16;100.00
48555;BME280;34336;48.270;16.716;2022-12-07T00:33:34;77031.56;;;18.16;100.00
48555;BME280;34336;48.270;16.716;2022-12-07T00:36:01;77027.72;;;18.16;100.00
48555;BME280;34336;48.270;16.716;2022-12-07T00:38:29;77014.22;;;18.16;100.00
48555;BME280;34336;48.270;16.716;2022-12-07T00:41:00;77010.38;;;18.16;100.00
48555;BME280;34336;48.270;16.716;2022-12-07T00:43:27;77002.66;;;18.16;100.00
48555;BME280;34336;48.270;16.716;2022-12-07T00:45:54;76996.88;;;18.16;100.00
48555;BME280;34336;48.270;16.716;2022-12-07T00:48:21;77002.66;;;18.16;100.00
48555;BME280;34336;48.270;16.716;2022-12-07T00:50:48;76998.81;;;18.16;100.00
48555;BME280;34336;48.270;16.716;2022-12-07T00:53:15;76994.97;;;18.16;100.00
48555;BME280;34336;48.270;16.716;2022-12-07T00:55:42;76996.88;;;18.16;100.00
48555;BME280;34336;48.270;16.716;2022-12-07T00:58:09;76996.88;;;18.16;100.00
48555;BME280;34336;48.270;16.716;2022-12-07T01:00:36;76996.88;;;18.16;100.00
48555;BME280;34336;48.270;16.716;2022-12-07T01:03:03;76998.81;;;18.16;100.00
48555;BME280;34336;48.270;16.716;2022-12-07T01:05:30;77002.66;;;18.16;100.00
48555;BME280;34336;48.270;16.716;2022-12-07T01:07:56;77002.66;;;18.16;100.00
48555;BME280;34336;48.270;16.716;2022-12-07T01:10:23;76996.88;;;18.16;100.00
48555;BME280;34336;48.270;16.716;2022-12-07T01:12:50;76994.97;;;18.16;100.00
48555;BME280;34336;48.270;16.716;2022-12-07T01:15:16;76994.97;;;18.16;100.00
48555;BME280;34336;48.270;16.716;2022-12-07T01:17:43;76989.16;;;18.16;100.00
48555;BME280;34336;48.270;16.716;2022-12-07T01:20:10;76981.47;;;18.16;100.00
48555;BME280;34336;48.270;16.716;2022-12-07T01:22:40;76987.25;;;18.16;100.00
48555;BME280;34336;48.270;16.716;2022-12-07T01:25:07;76979.53;;;18.16;100.00
48555;BME280;34336;48.270;16.716;2022-12-07T01:27:34;76975.69;;;18.16;100.00
48555;BME280;34336;48.270;16.716;2022-12-07T01:30:03;76975.69;;;18.16;100.00
48555;BME280;34336;48.270;16.716;2022-12-07T01:32:30;76979.53;;;18.16;100.00
48555;BME280;34336;48.270;16.716;2022-12-07T01:34:56;76979.53;;;18.16;100.00
48555;BME280;34336;48.270;16.716;2022-12-07T01:37:23;76981.47;;;18.16;100.00
48555;BME280;34336;48.270;16.716;2022-12-07T01:39:50;76979.53;;;18.16;100.00
48555;BME280;34336;48.270;16.716;2022-12-07T01:42:18;76977.59;;;18.16;100.00
48555;BME280;34336;48.270;16.716;2022-12-07T01:47:30;76979.53;;;18.16;100.00
48555;BME280;34336;48.270;16.716;2022-12-07T01:49:56;76973.75;;;18.16;100.00
48555;BME280;34336;48.270;16.716;2022-12-07T01:52:27;76975.69;;;18.16;100.00
48555;BME280;34336;48.270;16.716;2022-12-07T01:54:56;76967.97;;;18.16;99.84
48555;BME280;34336;48.270;16.716;2022-12-07T01:57:25;76967.97;;;18.16;99.52
48555;BME280;34336;48.270;16.716;2022-12-07T01:59:52;76964.13;;;18.16;99.93
48555;BME280;34336;48.270;16.716;2022-12-07T02:02:26;76971.81;;;18.16;99.48
48555;BME280;34336;48.270;16.716;2022-12-07T02:04:54;76971.81;;;18.16;99.71
48555;BME280;34336;48.270;16.716;2022-12-07T02:07:21;76975.69;;;18.16;100.00
48555;BME280;34336;48.270;16.716;2022-12-07T02:09:49;76973.75;;;18.16;100.00
48555;BME280;34336;48.270;16.716;2022-12-07T02:12:16;76979.53;;;18.16;100.00
48555;BME280;34336;48.270;16.716;2022-12-07T02:14:43;76979.53;;;18.16;100.00
48555;BME280;34336;48.270;16.716;2022-12-07T02:19:45;76973.75;;;18.16;100.00
48555;BME280;34336;48.270;16.716;2022-12-07T02:30:12;76969.91;;;18.16;100.00
48555;BME280;34336;48.270;16.716;2022-12-07T02:32:41;76975.69;;;18.16;100.00
48555;BME280;34336;48.270;16.716;2022-12-07T02:35:09;76964.13;;;18.16;100.00
48555;BME280;34336;48.270;16.716;2022-12-07T02:40:09;76960.25;;;18.16;100.00
48555;BME280;34336;48.270;16.716;2022-12-07T02:42:38;76967.97;;;18.16;100.00
48555;BME280;34336;48.270;16.716;2022-12-07T02:45:07;76956.41;;;18.16;99.99
48555;BME280;34336;48.270;16.716;2022-12-07T02:47:34;76967.97;;;18.16;100.00
48555;BME280;34336;48.270;16.716;2022-12-07T02:50:05;76964.13;;;18.16;100.00
48555;BME280;34336;48.270;16.716;2022-12-07T02:52:32;76969.91;;;18.16;100.00
48555;BME280;34336;48.270;16.716;2022-12-07T02:54:59;76964.13;;;18.16;100.00
48555;BME280;34336;48.270;16.716;2022-12-07T03:00:06;76956.41;;;18.16;100.00
48555;BME280;34336;48.270;16.716;2022-12-07T03:05:20;76964.13;;;18.16;100.00
48555;BME280;34336;48.270;16.716;2022-12-07T03:15:29;76967.97;;;18.16;100.00
48555;BME280;34336;48.270;16.716;2022-12-07T03:17:58;76971.81;;;18.16;100.00
48555;BME280;34336;48.270;16.716;2022-12-07T03:20:27;76967.97;;;18.16;100.00
48555;BME280;34336;48.270;16.716;2022-12-07T03:22:54;76960.25;;;18.16;100.00
48555;BME280;34336;48.270;16.716;2022-12-07T03:25:20;76971.81;;;18.16;100.00
48555;BME280;34336;48.270;16.716;2022-12-07T03:30:20;76979.53;;;18.16;100.00
48555;BME280;34336;48.270;16.716;2022-12-07T03:33:10;76975.69;;;18.16;100.00
48555;BME280;34336;48.270;16.716;2022-12-07T03:35:36;76975.69;;;18.16;100.00
48555;BME280;34336;48.270;16.716;2022-12-07T03:38:08;76979.53;;;18.16;100.00
48555;BME280;34336;48.270;16.716;2022-12-07T03:40:48;76973.75;;;18.16;100.00
48555;BME280;34336;48.270;16.716;2022-12-07T03:43:16;76977.59;;;18.16;100.00
48555;BME280;34336;48.270;16.716;2022-12-07T03:45:45;76983.38;;;18.16;100.00
48555;BME280;34336;48.270;16.716;2022-12-07T03:48:30;76983.38;;;18.16;100.00
48555;BME280;34336;48.270;16.716;2022-12-07T03:51:13;76991.09;;;18.16;100.00
48555;BME280;34336;48.270;16.716;2022-12-07T03:53:54;76991.09;;;18.16;100.00
48555;BME280;34336;48.270;16.716;2022-12-07T03:56:25;76996.88;;;18.16;100.00
48555;BME280;34336;48.270;16.716;2022-12-07T03:58:52;76998.81;;;18.16;100.00
48555;BME280;34336;48.270;16.716;2022-12-07T04:01:20;77002.66;;;18.16;100.00
48555;BME280;34336;48.270;16.716;2022-12-07T04:03:46;76998.81;;;18.16;100.00
48555;BME280;34336;48.270;16.716;2022-12-07T04:06:13;76998.81;;;18.16;100.00
48555;BME280;34336;48.270;16.716;2022-12-07T04:08:40;77002.66;;;18.16;100.00
48555;BME280;34336;48.270;16.716;2022-12-07T04:11:06;77002.66;;;18.16;100.00
48555;BME280;34336;48.270;16.716;2022-12-07T04:13:33;77002.66;;;18.16;100.00
48555;BME280;34336;48.270;16.716;2022-12-07T04:16:19;77004.59;;;18.16;100.00
48555;BME280;34336;48.270;16.716;2022-12-07T04:18:46;76996.88;;;18.16;100.00
48555;BME280;34336;48.270;16.716;2022-12-07T04:21:13;77006.53;;;18.16;100.00
48555;BME280;34336;48.270;16.716;2022-12-07T04:23:39;77006.53;;;18.16;100.00
48555;BME280;34336;48.270;16.716;2022-12-07T04:26:06;77014.22;;;18.16;100.00
48555;BME280;34336;48.270;16.716;2022-12-07T04:28:35;77014.22;;;18.16;100.00
48555;BME280;34336;48.270;16.716;2022-12-07T04:31:02;77014.22;;;18.16;100.00
48555;BME280;34336;48.270;16.716;2022-12-07T04:33:28;77020.00;;;18.16;100.00
48555;BME280;34336;48.270;16.716;2022-12-07T04:35:55;77010.38;;;18.16;100.00
48555;BME280;34336;48.270;16.716;2022-12-07T04:38:21;77008.44;;;18.16;100.00
48555;BME280;34336;48.270;16.716;2022-12-07T04:40:48;77021.94;;;18.16;100.00
48555;BME280;34336;48.270;16.716;2022-12-07T04:43:14;77021.94;;;18.16;100.00
48555;BME280;34336;48.270;16.716;2022-12-07T04:45:45;77025.78;;;18.16;100.00
48555;BME280;34336;48.270;16.716;2022-12-07T04:48:11;77021.94;;;18.16;100.00
48555;BME280;34336;48.270;16.716;2022-12-07T04:50:38;77021.94;;;18.16;100.00
48555;BME280;34336;48.270;16.716;2022-12-07T04:53:11;77020.00;;;18.16;100.00
48555;BME280;34336;48.270;16.716;2022-12-07T04:55:38;77021.94;;;18.16;100.00
48555;BME280;34336;48.270;16.716;2022-12-07T05:01:22;77014.22;;;18.16;100.00
48555;BME280;34336;48.270;16.716;2022-12-07T05:03:49;77018.09;;;18.16;100.00
48555;BME280;34336;48.270;16.716;2022-12-07T05:06:15;77010.38;;;18.16;100.00
48555;BME280;34336;48.270;16.716;2022-12-07T05:08:42;77004.59;;;18.16;100.00
48555;BME280;34336;48.270;16.716;2022-12-07T05:11:09;77004.59;;;18.16;100.00
48555;BME280;34336;48.270;16.716;2022-12-07T05:13:56;77008.44;;;18.16;100.00
48555;BME280;34336;48.270;16.716;2022-12-07T05:16:23;77006.53;;;18.16;100.00
48555;BME280;34336;48.270;16.716;2022-12-07T05:18:50;77014.22;;;18.16;100.00
48555;BME280;34336;48.270;16.716;2022-12-07T05:21:17;77018.09;;;18.16;100.00
48555;BME280;34336;48.270;16.716;2022-12-07T05:23:44;77020.00;;;18.16;100.00
48555;BME280;34336;48.270;16.716;2022-12-07T05:26:11;77021.94;;;18.16;100.00
48555;BME280;34336;48.270;16.716;2022-12-07T05:28:37;77018.09;;;18.16;100.00
48555;BME280;34336;48.270;16.716;2022-12-07T05:31:04;77020.00;;;18.16;100.00
48555;BME280;34336;48.270;16.716;2022-12-07T05:33:31;77014.22;;;18.16;100.00
48555;BME280;34336;48.270;16.716;2022-12-07T05:35:57;77014.22;;;18.16;100.00
48555;BME280;34336;48.270;16.716;2022-12-07T05:38:24;77006.53;;;18.16;100.00
48555;BME280;34336;48.270;16.716;2022-12-07T05:40:51;77010.38;;;18.16;100.00
48555;BME280;34336;48.270;16.716;2022-12-07T05:43:17;77014.22;;;18.16;100.00
48555;BME280;34336;48.270;16.716;2022-12-07T05:45:44;77012.31;;;18.16;100.00
48555;BME280;34336;48.270;16.716;2022-12-07T05:48:11;77016.16;;;18.16;100.00
48555;BME280;34336;48.270;16.716;2022-12-07T05:50:37;77021.94;;;18.16;100.00
48555;BME280;34336;48.270;16.716;2022-12-07T05:53:04;77018.09;;;18.16;100.00
48555;BME280;34336;48.270;16.716;2022-12-07T05:55:31;77016.16;;;18.16;100.00
48555;BME280;34336;48.270;16.716;2022-12-07T05:57:57;77025.78;;;18.16;100.00
48555;BME280;34336;48.270;16.716;2022-12-07T06:00:42;77029.66;;;18.16;100.00
48555;BME280;34336;48.270;16.716;2022-12-07T06:03:16;77037.34;;;18.16;100.00
48555;BME280;34336;48.270;16.716;2022-12-07T06:05:42;77039.28;;;18.16;100.00
48555;BME280;34336;48.270;16.716;2022-12-07T06:08:09;77041.22;;;18.16;100.00
48555;BME280;34336;48.270;16.716;2022-12-07T06:10:36;77048.91;;;18.16;100.00
48555;BME280;34336;48.270;16.716;2022-12-07T06:13:02;77043.13;;;18.16;100.00
48555;BME280;34336;48.270;16.716;2022-12-07T06:15:29;77054.69;;;18.16;100.00
48555;BME280;34336;48.270;16.716;2022-12-07T06:17:55;77052.78;;;18.16;100.00
48555;BME280;34336;48.270;16.716;2022-12-07T06:20:22;77058.56;;;18.16;100.00
48555;BME280;34336;48.270;16.716;2022-12-07T06:22:48;77060.47;;;18.16;100.00
48555;BME280;34336;48.270;16.716;2022-12-07T06:25:15;77048.91;;;18.16;100.00
48555;BME280;34336;48.270;16.716;2022-12-07T06:27:41;77056.63;;;18.16;100.00
48555;BME280;34336;48.270;16.716;2022-12-07T06:30:08;77052.78;;;18.16;100.00
48555;BME280;34336;48.270;16.716;2022-12-07T06:32:36;77056.63;;;18.16;100.00
48555;BME280;34336;48.270;16.716;2022-12-07T06:35:03;77060.47;;;18.16;100.00
48555;BME280;34336;48.270;16.716;2022-12-07T06:37:30;77066.25;;;18.16;100.00
48555;BME280;34336;48.270;16.716;2022-12-07T06:39:56;77062.41;;;18.16;100.00
48555;BME280;34336;48.270;16.716;2022-12-07T06:42:23;77054.69;;;18.16;100.00
48555;BME280;34336;48.270;16.716;2022-12-07T06:44:49;77052.78;;;18.16;100.00
48555;BME280;34336;48.270;16.716;2022-12-07T06:47:16;77045.06;;;18.16;100.00
48555;BME280;34336;48.270;16.716;2022-12-07T06:50:02;77045.06;;;18.16;100.00
48555;BME280;34336;48.270;16.716;2022-12-07T06:52:30;77043.13;;;18.16;100.00
48555;BME280;34336;48.270;16.716;2022-12-07T06:54:56;77045.06;;;18.16;100.00
48555;BME280;34336;48.270;16.716;2022-12-07T06:57:23;77045.06;;;18.16;100.00
48555;BME280;34336;48.270;16.716;2022-12-07T06:59:49;77043.13;;;18.16;100.00
48555;BME280;34336;48.270;16.716;2022-12-07T07:02:16;77047.00;;;18.16;100.00
48555;BME280;34336;48.270;16.716;2022-12-07T07:04:43;77045.06;;;18.16;100.00
48555;BME280;34336;48.270;16.716;2022-12-07T07:07:09;77045.06;;;18.16;100.00
48555;BME280;34336;48.270;16.716;2022-12-07T07:09:36;77041.22;;;18.16;100.00
48555;BME280;34336;48.270;16.716;2022-12-07T07:12:02;77045.06;;;18.16;100.00
48555;BME280;34336;48.270;16.716;2022-12-07T07:14:29;77045.06;;;18.16;100.00
48555;BME280;34336;48.270;16.716;2022-12-07T07:16:56;77047.00;;;18.16;100.00
48555;BME280;34336;48.270;16.716;2022-12-07T07:19:22;77047.00;;;18.16;100.00
48555;BME280;34336;48.270;16.716;2022-12-07T07:21:49;77045.06;;;18.16;100.00
48555;BME280;34336;48.270;16.716;2022-12-07T07:24:15;77045.06;;;18.16;100.00
48555;BME280;34336;48.270;16.716;2022-12-07T07:26:42;77037.34;;;18.16;100.00
48555;BME280;34336;48.270;16.716;2022-12-07T07:29:09;77041.22;;;18.16;100.00
48555;BME280;34336;48.270;16.716;2022-12-07T07:31:35;77041.22;;;18.16;100.00
48555;BME280;34336;48.270;16.716;2022-12-07T07:34:03;77043.13;;;18.16;100.00
48555;BME280;34336;48.270;16.716;2022-12-07T07:36:32;77045.06;;;18.16;100.00
48555;BME280;34336;48.270;16.716;2022-12-07T07:38:59;77041.22;;;18.16;100.00
48555;BME280;34336;48.270;16.716;2022-12-07T07:41:25;77039.28;;;18.16;100.00
48555;BME280;34336;48.270;16.716;2022-12-07T07:43:52;77039.28;;;18.16;100.00
48555;BME280;34336;48.270;16.716;2022-12-07T07:46:18;77041.22;;;18.16;100.00
48555;BME280;34336;48.270;16.716;2022-12-07T07:48:45;77039.28;;;18.16;100.00
48555;BME280;34336;48.270;16.716;2022-12-07T07:51:12;77041.22;;;18.16;100.00
48555;BME280;34336;48.270;16.716;2022-12-07T07:53:38;77033.50;;;18.16;100.00
48555;BME280;34336;48.270;16.716;2022-12-07T07:56:05;77033.50;;;18.16;100.00
48555;BME280;34336;48.270;16.716;2022-12-07T07:58:31;77033.50;;;18.16;100.00
48555;BME280;34336;48.270;16.716;2022-12-07T08:01:03;77025.78;;;18.16;100.00
48555;BME280;34336;48.270;16.716;2022-12-07T08:03:29;77018.09;;;18.16;100.00
48555;BME280;34336;48.270;16.716;2022-12-07T08:05:56;77016.16;;;18.16;100.00
48555;BME280;34336;48.270;16.716;2022-12-07T08:08:22;77014.22;;;18.16;100.00
48555;BME280;34336;48.270;16.716;2022-12-07T08:10:49;77006.53;;;18.16;100.00
48555;BME280;34336;48.270;16.716;2022-12-07T08:13:16;77002.66;;;18.16;100.00
48555;BME280;34336;48.270;16.716;2022-12-07T08:15:44;77006.53;;;18.16;100.00
48555;BME280;34336;48.270;16.716;2022-12-07T08:18:11;76994.97;;;18.16;100.00
48555;BME280;34336;48.270;16.716;2022-12-07T08:20:39;76987.25;;;18.16;100.00
48555;BME280;34336;48.270;16.716;2022-12-07T08:23:06;76983.38;;;18.16;100.00
48555;BME280;34336;48.270;16.716;2022-12-07T08:25:33;76975.69;;;18.16;100.00
48555;BME280;34336;48.270;16.716;2022-12-07T08:27:59;76967.97;;;18.16;100.00
48555;BME280;34336;48.270;16.716;2022-12-07T08:30:27;76967.97;;;18.16;100.00
48555;BME280;34336;48.270;16.716;2022-12-07T08:32:54;76956.41;;;18.16;100.00
48555;BME280;34336;48.270;16.716;2022-12-07T08:35:21;76952.56;;;18.16;100.00
48555;BME280;34336;48.270;16.716;2022-12-07T08:37:47;76937.13;;;18.16;100.00
48555;BME280;34336;48.270;16.716;2022-12-07T08:40:14;76933.28;;;18.16;100.00
48555;BME280;34336;48.270;16.716;2022-12-07T08:42:42;76937.13;;;18.16;100.00
48555;BME280;34336;48.270;16.716;2022-12-07T08:45:11;76925.56;;;18.16;100.00
48555;BME280;34336;48.270;16.716;2022-12-07T08:47:45;76927.50;;;18.16;100.00
48555;BME280;34336;48.270;16.716;2022-12-07T08:50:14;76919.78;;;18.16;100.00
48555;BME280;34336;48.270;16.716;2022-12-07T08:52:41;76910.16;;;18.16;99.89
48555;BME280;34336;48.270;16.716;2022-12-07T08:55:09;76906.31;;;18.16;98.75
48555;BME280;34336;48.270;16.716;2022-12-07T08:57:36;76902.44;;;18.16;98.14
48555;BME280;34336;48.270;16.716;2022-12-07T09:00:03;76890.88;;;18.16;98.84
48555;BME280;34336;48.270;16.716;2022-12-07T09:02:31;76898.59;;;18.16;97.45
48555;BME280;34336;48.270;16.716;2022-12-07T09:04:57;76890.88;;;18.16;97.87
48555;BME280;34336;48.270;16.716;2022-12-07T09:07:24;76871.63;;;18.16;97.07
48555;BME280;34336;48.270;16.716;2022-12-07T09:09:51;76852.34;;;18.16;95.36
48555;BME280;34336;48.270;16.716;2022-12-07T09:12:18;76858.13;;;18.16;95.00
48555;BME280;34336;48.270;16.716;2022-12-07T09:14:44;76871.63;;;18.16;91.71
48555;BME280;34336;48.270;16.716;2022-12-07T09:17:11;76863.91;;;18.16;90.43
48555;BME280;34336;48.270;16.716;2022-12-07T09:19:38;76856.19;;;18.16;88.84
48555;BME280;34336;48.270;16.716;2022-12-07T09:22:05;76852.34;;;18.16;88.39
48555;BME280;34336;48.270;16.716;2022-12-07T09:24:32;76856.19;;;18.16;86.77
48555;BME280;34336;48.270;16.716;2022-12-07T09:26:58;76865.84;;;18.16;86.77
48555;BME280;34336;48.270;16.716;2022-12-07T09:29:25;76850.41;;;18.16;85.36
48555;BME280;34336;48.270;16.716;2022-12-07T09:31:52;76833.06;;;18.16;84.35
48555;BME280;34336;48.270;16.716;2022-12-07T09:34:18;76806.09;;;18.16;82.94
48555;BME280;34336;48.270;16.716;2022-12-07T09:36:45;76804.16;;;18.16;82.62
48555;BME280;34336;48.270;16.716;2022-12-07T09:39:12;76779.09;;;18.16;81.20
48555;BME280;34336;48.270;16.716;2022-12-07T09:41:39;76782.97;;;18.16;80.82
48555;BME280;34336;48.270;16.716;2022-12-07T09:44:09;76759.84;;;18.16;79.91
48555;BME280;34336;48.270;16.716;2022-12-07T09:46:36;76730.94;;;18.16;78.22
48555;BME280;34336;48.270;16.716;2022-12-07T09:49:05;76763.69;;;18.16;73.25
48555;BME280;34336;48.270;16.716;2022-12-07T09:51:31;76775.25;;;18.16;74.25
48555;BME280;34336;48.270;16.716;2022-12-07T09:53:58;76746.34;;;18.16;73.07
48555;BME280;34336;48.270;16.716;2022-12-07T09:56:25;76729.00;;;18.16;72.22
48555;BME280;34336;48.270;16.716;2022-12-07T09:58:58;76686.59;;;18.16;71.46
48555;BME280;34336;48.270;16.716;2022-12-07T10:01:27;76696.25;;;18.16;70.68
48555;BME280;34336;48.270;16.716;2022-12-07T10:03:55;76680.81;;;18.16;70.17
48555;BME280;34336;48.270;16.716;2022-12-07T10:06:25;76698.16;;;18.16;69.33
48555;BME280;34336;48.270;16.716;2022-12-07T10:08:51;76698.16;;;18.16;69.24
48555;BME280;34336;48.270;16.716;2022-12-07T10:11:18;76678.91;;;18.16;68.34
48555;BME280;34336;48.270;16.716;2022-12-07T10:13:48;76632.66;;;18.16;67.82
48555;BME280;34336;48.270;16.716;2022-12-07T10:18:55;76613.38;;;18.16;66.06
48555;BME280;34336;48.270;16.716;2022-12-07T10:21:22;76582.53;;;18.16;63.52
48555;BME280;34336;48.270;16.716;2022-12-07T10:24:05;76563.28;;;18.16;64.22
48555;BME280;34336;48.270;16.716;2022-12-07T10:26:38;76619.16;;;18.16;64.52
48555;BME280;34336;48.270;16.716;2022-12-07T10:31:52;76630.72;;;18.16;64.54
48555;BME280;34336;48.270;16.716;2022-12-07T10:34:28;76671.19;;;18.16;66.55
48555;BME280;34336;48.270;16.716;2022-12-07T10:39:45;76690.47;;;18.16;64.73
48555;BME280;34336;48.270;16.716;2022-12-07T10:42:18;76676.97;;;18.16;65.84
48555;BME280;34336;48.270;16.716;2022-12-07T10:44:45;76628.78;;;18.16;65.46
48555;BME280;34336;48.270;16.716;2022-12-07T11:00:24;76640.34;;;18.16;61.83
48555;BME280;34336;48.270;16.716;2022-12-07T11:02:54;76644.22;;;18.16;61.10
48555;BME280;34336;48.270;16.716;2022-12-07T11:10:44;76696.25;;;18.16;57.64
48555;BME280;34336;48.270;16.716;2022-12-07T11:15:55;76717.44;;;18.16;58.28
48555;BME280;34336;48.270;16.716;2022-12-07T11:21:09;76732.84;;;18.16;58.99
48555;BME280;34336;48.270;16.716;2022-12-07T11:23:48;76732.84;;;18.16;59.75
48555;BME280;34336;48.270;16.716;2022-12-07T11:38:55;76705.88;;;18.16;60.43
48555;BME280;34336;48.270;16.716;2022-12-07T11:41:23;76705.88;;;18.16;59.99
48555;BME280;34336;48.270;16.716;2022-12-07T11:46:19;76713.59;;;18.16;60.89
48555;BME280;34336;48.270;16.716;2022-12-07T11:48:56;76727.06;;;18.16;59.65
48555;BME280;34336;48.270;16.716;2022-12-07T11:51:25;76744.41;;;18.16;58.96
48555;BME280;34336;48.270;16.716;2022-12-07T11:53:59;76757.91;;;18.16;59.17
48555;BME280;34336;48.270;16.716;2022-12-07T11:56:28;76755.97;;;18.16;59.36
48555;BME280;34336;48.270;16.716;2022-12-07T11:58:57;76746.34;;;18.16;60.10
48555;BME280;34336;48.270;16.716;2022-12-07T12:01:31;76736.72;;;18.16;59.97
48555;BME280;34336;48.270;16.716;2022-12-07T12:04:16;76709.72;;;18.16;60.28
48555;BME280;34336;48.270;16.716;2022-12-07T12:06:48;76694.31;;;18.16;59.92
48555;BME280;34336;48.270;16.716;2022-12-07T12:09:16;76675.03;;;18.16;59.25
48555;BME280;34336;48.270;16.716;2022-12-07T12:15:20;76682.75;;;18.16;58.18
48555;BME280;34336;48.270;16.716;2022-12-07T12:22:47;76692.38;;;18.16;59.23
48555;BME280;34336;48.270;16.716;2022-12-07T12:25:21;76682.75;;;18.16;59.43
48555;BME280;34336;48.270;16.716;2022-12-07T12:27:50;76682.75;;;18.16;58.85
48555;BME280;34336;48.270;16.716;2022-12-07T12:33:12;76694.31;;;18.16;58.99
48555;BME280;34336;48.270;16.716;2022-12-07T12:35:40;76696.25;;;18.16;58.17
48555;BME280;34336;48.270;16.716;2022-12-07T12:38:27;76696.25;;;18.16;58.78
48555;BME280;34336;48.270;16.716;2022-12-07T12:40:54;76671.19;;;18.16;59.21
48555;BME280;34336;48.270;16.716;2022-12-07T12:43:44;76678.91;;;18.16;58.95
48555;BME280;34336;48.270;16.716;2022-12-07T12:51:41;76707.81;;;18.16;58.47
48555;BME280;34336;48.270;16.716;2022-12-07T12:54:13;76709.72;;;18.16;59.25
48555;BME280;34336;48.270;16.716;2022-12-07T12:56:42;76725.16;;;18.16;58.87
48555;BME280;34336;48.270;16.716;2022-12-07T12:59:24;76721.28;;;18.16;59.46
48555;BME280;34336;48.270;16.716;2022-12-07T13:01:55;76729.00;;;18.16;59.67
48555;BME280;34336;48.270;16.716;2022-12-07T13:04:24;76730.94;;;18.16;59.52
48555;BME280;34336;48.270;16.716;2022-12-07T13:06:51;76736.72;;;18.16;60.76
48555;BME280;34336;48.270;16.716;2022-12-07T13:09:25;76736.72;;;18.16;59.73
48555;BME280;34336;48.270;16.716;2022-12-07T13:11:58;76742.50;;;18.16;59.64
48555;BME280;34336;48.270;16.716;2022-12-07T13:24:55;76744.41;;;18.16;59.99
48555;BME280;34336;48.270;16.716;2022-12-07T13:27:22;76744.41;;;18.16;59.94
48555;BME280;34336;48.270;16.716;2022-12-07T13:29:50;76750.19;;;18.16;59.54
48555;BME280;34336;48.270;16.716;2022-12-07T13:32:27;76752.13;;;18.16;59.77
48555;BME280;34336;48.270;16.716;2022-12-07T13:34:54;76757.91;;;18.16;60.13
48555;BME280;34336;48.270;16.716;2022-12-07T13:37:24;76757.91;;;18.16;60.63
48555;BME280;34336;48.270;16.716;2022-12-07T13:39:52;76763.69;;;18.16;61.64
48555;BME280;34336;48.270;16.716;2022-12-07T13:42:30;76771.41;;;18.16;61.82
48555;BME280;34336;48.270;16.716;2022-12-07T13:44:58;76775.25;;;18.16;61.95
48555;BME280;34336;48.270;16.716;2022-12-07T13:49:53;76782.97;;;18.16;62.23
48555;BME280;34336;48.270;16.716;2022-12-07T13:54:55;76781.03;;;18.16;61.88
48555;BME280;34336;48.270;16.716;2022-12-07T13:57:22;76786.81;;;18.16;61.78
48555;BME280;34336;48.270;16.716;2022-12-07T13:59:51;76786.81;;;18.16;62.93
48555;BME280;34336;48.270;16.716;2022-12-07T14:02:27;76792.59;;;18.16;62.63
48555;BME280;34336;48.270;16.716;2022-12-07T14:05:10;76798.38;;;18.16;63.72
48555;BME280;34336;48.270;16.716;2022-12-07T14:07:52;76798.38;;;18.16;63.45
48555;BME280;34336;48.270;16.716;2022-12-07T14:10:30;76809.94;;;18.16;63.78
48555;BME280;34336;48.270;16.716;2022-12-07T14:12:57;76808.00;;;18.16;64.48
48555;BME280;34336;48.270;16.716;2022-12-07T14:15:25;76821.50;;;18.16;64.73
48555;BME280;34336;48.270;16.716;2022-12-07T14:17:54;76836.94;;;18.16;64.88
48555;BME280;34336;48.270;16.716;2022-12-07T14:23:03;76860.06;;;18.16;64.72
48555;BME280;34336;48.270;16.716;2022-12-07T14:28:32;76887.03;;;18.16;67.55
48555;BME280;34336;48.270;16.716;2022-12-07T14:30:59;76896.66;;;18.16;68.18
48555;BME280;34336;48.270;16.716;2022-12-07T14:33:27;76906.31;;;18.16;68.70
48555;BME280;34336;48.270;16.716;2022-12-07T14:35:54;76912.09;;;18.16;69.48
48555;BME280;34336;48.270;16.716;2022-12-07T14:38:22;76925.56;;;18.16;70.32
48555;BME280;34336;48.270;16.716;2022-12-07T14:40:48;76929.44;;;18.16;70.48
48555;BME280;34336;48.270;16.716;2022-12-07T14:43:15;76937.13;;;18.16;71.03
48555;BME280;34336;48.270;16.716;2022-12-07T14:45:43;76960.25;;;18.16;71.83
48555;BME280;34336;48.270;16.716;2022-12-07T14:48:14;76964.13;;;18.16;71.84
48555;BME280;34336;48.270;16.716;2022-12-07T14:51:01;76975.69;;;18.16;72.30